createdAt,value
2019-03-23T00:00:08.868Z,85.40
2019-03-23T00:02:38.718Z,89.67
2019-03-23T00:05:08.200Z,88.27
2019-03-23T00:07:36.885Z,87.10
2019-03-23T00:10:10.675Z,88.27
2019-03-23T00:12:39.725Z,83.80
2019-03-23T00:15:10.517Z,79.27
2019-03-23T00:17:39.788Z,78.67
2019-03-23T00:20:09.240Z,81.87
2019-03-23T00:22:37.904Z,79.40
2019-03-23T00:25:07.132Z,75.37
2019-03-23T00:27:35.756Z,74.00
2019-03-23T00:30:06.684Z,74.23
2019-03-23T00:32:35.265Z,82.33
2019-03-23T00:35:05.181Z,81.17
2019-03-23T00:37:33.823Z,79.83
2019-03-23T00:40:02.847Z,85.03
2019-03-23T00:42:31.444Z,86.43
2019-03-23T00:45:00.027Z,91.10
2019-03-23T00:47:28.735Z,86.70
2019-03-23T00:49:57.325Z,86.03
2019-03-23T00:52:25.926Z,88.50
2019-03-23T00:54:54.512Z,87.53
2019-03-23T00:57:23.510Z,81.53
2019-03-23T00:59:52.608Z,91.73
2019-03-23T01:02:21.240Z,80.73
2019-03-23T01:04:49.852Z,83.17
2019-03-23T01:07:18.457Z,90.73
2019-03-23T01:09:47.060Z,88.47
2019-03-23T01:12:15.651Z,76.27
2019-03-23T01:14:44.248Z,83.60
2019-03-23T01:17:13.153Z,84.67
2019-03-23T01:19:41.750Z,85.57
2019-03-23T01:22:10.780Z,88.30
2019-03-23T01:24:39.350Z,89.80
2019-03-23T01:27:08.039Z,83.57
2019-03-23T01:29:36.630Z,89.53
2019-03-23T01:32:05.709Z,84.20
2019-03-23T01:34:34.277Z,87.30
2019-03-23T01:37:03.261Z,92.40
2019-03-23T01:39:31.828Z,91.67
2019-03-23T01:42:00.426Z,77.13
2019-03-23T01:44:29.306Z,93.93
2019-03-23T01:46:57.935Z,79.03
2019-03-23T01:49:26.526Z,83.50
2019-03-23T01:51:55.127Z,83.97
2019-03-23T01:54:23.716Z,88.30
2019-03-23T01:56:52.389Z,81.77
2019-03-23T01:59:20.935Z,84.60
2019-03-23T02:01:49.966Z,84.90
2019-03-23T02:04:18.563Z,90.57
2019-03-23T02:06:47.456Z,93.03
2019-03-23T02:09:16.267Z,98.17
2019-03-23T02:11:44.850Z,94.70
2019-03-23T02:14:13.488Z,102.00
2019-03-23T02:16:42.075Z,92.33
2019-03-23T02:19:10.685Z,89.20
2019-03-23T02:21:39.350Z,95.83
2019-03-23T02:24:08.031Z,90.90
2019-03-23T02:26:36.612Z,91.63
2019-03-23T02:29:05.227Z,92.20
2019-03-23T02:31:33.890Z,89.80
2019-03-23T02:34:03.012Z,97.23
2019-03-23T02:36:31.597Z,92.03
2019-03-23T02:39:00.193Z,95.13
2019-03-23T02:41:29.125Z,94.87
2019-03-23T02:43:57.754Z,105.67
2019-03-23T02:46:26.335Z,96.67
2019-03-23T02:48:54.960Z,96.83
2019-03-23T02:51:23.559Z,94.83
2019-03-23T02:53:52.176Z,100.87
2019-03-23T02:56:20.766Z,99.57
2019-03-23T02:58:49.472Z,97.63
2019-03-23T03:01:18.082Z,85.83
2019-03-23T03:03:46.701Z,85.93
2019-03-23T03:06:15.324Z,89.40
2019-03-23T03:08:43.929Z,88.20
2019-03-23T03:11:12.526Z,90.20
2019-03-23T03:13:41.142Z,90.37
2019-03-23T03:16:09.720Z,84.73
2019-03-23T03:18:38.371Z,84.60
2019-03-23T03:21:07.129Z,85.60
2019-03-23T03:23:35.736Z,88.67
2019-03-23T03:26:04.542Z,83.73
2019-03-23T03:28:33.332Z,85.20
2019-03-23T03:31:01.916Z,93.07
2019-03-23T03:33:30.540Z,88.23
2019-03-23T03:35:59.140Z,83.47
2019-03-23T03:38:27.731Z,82.17
2019-03-23T03:40:56.337Z,86.20
2019-03-23T03:43:24.924Z,82.57
2019-03-23T03:45:53.538Z,77.10
2019-03-23T03:48:22.166Z,77.60
2019-03-23T03:50:51.136Z,78.33
2019-03-23T03:53:19.714Z,78.53
2019-03-23T03:55:48.301Z,74.03
2019-03-23T03:58:16.891Z,78.57
2019-03-23T04:00:45.493Z,75.43
2019-03-23T04:03:14.062Z,71.47
2019-03-23T04:05:42.705Z,75.53
2019-03-23T04:08:12.191Z,77.33
2019-03-23T04:10:40.977Z,79.87
2019-03-23T04:13:09.941Z,78.10
2019-03-23T04:15:53.958Z,72.50
2019-03-23T04:18:22.574Z,69.23
2019-03-23T04:20:51.190Z,69.57
2019-03-23T04:23:19.821Z,66.57
2019-03-23T04:25:48.403Z,79.40
2019-03-23T04:28:17.297Z,73.63
2019-03-23T04:30:46.236Z,68.73
2019-03-23T04:33:14.842Z,70.23
2019-03-23T04:35:43.875Z,74.13
2019-03-23T04:38:22.284Z,72.90
2019-03-23T04:40:43.122Z,65.77
2019-03-23T04:43:11.710Z,74.13
2019-03-23T04:45:40.314Z,72.23
2019-03-23T04:48:08.903Z,70.97
2019-03-23T04:50:37.515Z,69.17
2019-03-23T04:53:06.142Z,64.93
2019-03-23T04:55:34.765Z,70.37
2019-03-23T04:58:03.404Z,62.17
2019-03-23T05:00:32.012Z,71.57
2019-03-23T05:03:00.605Z,64.53
2019-03-23T05:05:29.240Z,68.10
2019-03-23T05:07:57.837Z,66.07
2019-03-23T05:10:26.464Z,68.23
2019-03-23T05:12:55.050Z,70.77
2019-03-23T05:15:24.051Z,67.83
2019-03-23T05:17:52.624Z,70.43
2019-03-23T05:20:29.148Z,68.57
2019-03-23T05:22:57.870Z,69.13
2019-03-23T05:25:28.533Z,57.20
2019-03-23T05:27:58.100Z,64.47
2019-03-23T05:30:26.951Z,63.73
2019-03-23T05:32:55.588Z,59.53
2019-03-23T05:35:24.277Z,65.47
2019-03-23T05:37:52.912Z,61.07
2019-03-23T05:40:21.550Z,64.87
2019-03-23T05:42:50.140Z,63.20
2019-03-23T05:45:18.718Z,59.50
2019-03-23T05:47:48.970Z,57.77
2019-03-23T05:50:18.081Z,55.13
2019-03-23T05:52:47.891Z,61.70
2019-03-23T05:55:16.472Z,59.70
2019-03-23T05:57:45.095Z,55.07
2019-03-23T06:00:15.396Z,56.47
2019-03-23T06:02:44.035Z,54.10
2019-03-23T06:05:12.694Z,56.97
2019-03-23T06:07:41.314Z,50.93
2019-03-23T06:10:10.474Z,53.30
2019-03-23T06:12:39.661Z,57.20
2019-03-23T06:15:08.576Z,51.73
2019-03-23T06:17:37.343Z,49.53
2019-03-23T06:20:09.692Z,51.23
2019-03-23T06:22:38.295Z,53.53
2019-03-23T06:25:07.344Z,47.10
2019-03-23T06:27:35.920Z,48.13
2019-03-23T06:30:06.963Z,50.00
2019-03-23T06:32:35.651Z,47.37
2019-03-23T06:35:04.495Z,42.13
2019-03-23T06:37:33.098Z,46.37
2019-03-23T06:40:01.736Z,47.97
2019-03-23T06:42:30.403Z,48.37
2019-03-23T06:44:59.438Z,45.77
2019-03-23T06:47:28.094Z,45.90
2019-03-23T06:49:57.032Z,47.73
2019-03-23T06:52:25.643Z,47.07
2019-03-23T06:54:54.234Z,46.17
2019-03-23T06:57:22.883Z,46.00
2019-03-23T06:59:51.458Z,47.17
2019-03-23T07:02:20.074Z,45.10
2019-03-23T07:04:49.137Z,49.67
2019-03-23T07:07:17.759Z,44.33
2019-03-23T07:09:46.689Z,46.10
2019-03-23T07:12:15.326Z,44.47
2019-03-23T07:14:43.902Z,46.83
2019-03-23T07:17:12.536Z,44.20
2019-03-23T07:19:41.166Z,41.47
2019-03-23T07:22:09.771Z,38.23
2019-03-23T07:24:42.722Z,43.30
2019-03-23T07:27:11.441Z,45.17
2019-03-23T07:29:40.371Z,43.70
2019-03-23T07:32:09.268Z,44.70
2019-03-23T07:34:37.921Z,42.30
2019-03-23T07:37:06.602Z,47.10
2019-03-23T07:39:35.731Z,45.40
2019-03-23T07:42:04.462Z,46.90
2019-03-23T07:44:33.122Z,43.93
2019-03-23T07:47:01.702Z,46.50
2019-03-23T07:49:30.320Z,43.90
2019-03-23T07:51:58.902Z,42.27
2019-03-23T07:54:27.538Z,42.10
2019-03-23T07:56:56.115Z,48.07
2019-03-23T07:59:24.726Z,44.13
2019-03-23T08:01:53.311Z,46.17
2019-03-23T08:04:21.922Z,44.13
2019-03-23T08:06:50.509Z,50.23
2019-03-23T08:09:20.625Z,45.03
2019-03-23T08:11:49.384Z,45.67
2019-03-23T08:14:18.005Z,43.93
2019-03-23T08:16:46.599Z,45.40
2019-03-23T08:19:15.262Z,42.37
2019-03-23T08:21:43.805Z,49.50
2019-03-23T08:24:12.815Z,44.47
2019-03-23T08:26:41.469Z,47.77
2019-03-23T08:29:10.070Z,45.43
2019-03-23T08:31:39.191Z,48.07
2019-03-23T08:34:07.888Z,44.67
2019-03-23T08:36:36.783Z,46.53
2019-03-23T08:39:07.338Z,45.60
2019-03-23T08:41:36.491Z,49.80
2019-03-23T08:44:05.434Z,47.77
2019-03-23T08:46:34.082Z,48.40
2019-03-23T08:49:02.714Z,49.03
2019-03-23T08:51:33.255Z,47.97
2019-03-23T08:54:01.822Z,48.93
2019-03-23T08:56:30.878Z,46.43
2019-03-23T08:58:59.488Z,43.53
2019-03-23T09:01:28.862Z,43.83
2019-03-23T09:03:57.540Z,43.33
2019-03-23T09:06:27.657Z,44.50
2019-03-23T09:08:59.127Z,42.67
2019-03-23T09:11:32.472Z,43.73
2019-03-23T09:14:01.455Z,42.60
2019-03-23T09:16:30.493Z,40.77
2019-03-23T09:19:00.176Z,44.80
2019-03-23T09:21:28.762Z,42.73
2019-03-23T09:23:57.530Z,43.70
2019-03-23T09:26:26.130Z,44.17
2019-03-23T09:28:55.036Z,43.53
2019-03-23T09:31:23.775Z,46.77
2019-03-23T09:33:52.382Z,41.30
2019-03-23T09:36:23.059Z,40.50
2019-03-23T09:38:51.271Z,41.63
2019-03-23T09:41:19.875Z,46.40
2019-03-23T09:43:48.487Z,43.77
2019-03-23T09:46:17.096Z,42.47
2019-03-23T09:48:45.670Z,47.90
2019-03-23T09:51:14.281Z,41.77
2019-03-23T09:53:42.870Z,45.20
2019-03-23T09:56:11.508Z,41.17
2019-03-23T09:58:40.102Z,43.27
2019-03-23T10:01:08.733Z,35.93
2019-03-23T10:03:38.884Z,39.30
2019-03-23T10:06:07.490Z,40.90
2019-03-23T10:08:36.090Z,44.03
2019-03-23T10:11:04.721Z,40.67
2019-03-23T10:13:33.655Z,38.77
2019-03-23T10:16:02.759Z,43.77
2019-03-23T10:18:31.361Z,40.83
2019-03-23T10:20:59.971Z,42.37
2019-03-23T10:23:29.111Z,44.73
2019-03-23T10:25:57.742Z,43.37
2019-03-23T10:28:26.396Z,41.40
2019-03-23T10:30:55.123Z,44.20
2019-03-23T10:33:23.701Z,40.05
2019-03-23T10:35:52.343Z,45.07
2019-03-23T10:38:20.932Z,42.77
2019-03-23T10:40:50.121Z,43.43
2019-03-23T10:43:19.054Z,40.27
2019-03-23T10:45:47.735Z,47.80
2019-03-23T10:48:16.404Z,45.00
2019-03-23T10:50:45.017Z,45.20
2019-03-23T10:53:22.753Z,44.75
2019-03-23T10:55:43.927Z,44.90
2019-03-23T10:58:14.042Z,43.20
2019-03-23T11:00:42.676Z,48.83
2019-03-23T11:03:11.595Z,56.43
2019-03-23T11:05:40.258Z,55.75
2019-03-23T11:08:08.994Z,58.13
2019-03-23T11:10:41.940Z,52.10
2019-03-23T11:13:11.403Z,53.80
2019-03-23T11:15:40.077Z,51.60
2019-03-23T11:18:08.895Z,50.70
2019-03-23T11:20:37.832Z,49.80
2019-03-23T11:23:06.837Z,52.25
2019-03-23T11:25:37.049Z,48.15
2019-03-23T11:28:05.656Z,44.90
2019-03-23T11:30:34.340Z,44.38
2019-03-23T11:33:02.981Z,48.28
2019-03-23T11:35:31.574Z,42.85
2019-03-23T11:38:02.546Z,45.03
2019-03-23T11:40:31.304Z,48.08
2019-03-23T11:42:59.917Z,44.60
2019-03-23T11:45:28.515Z,46.97
2019-03-23T11:47:57.119Z,45.93
2019-03-23T11:50:26.094Z,48.47
2019-03-23T11:52:54.684Z,50.17
2019-03-23T11:55:23.577Z,57.03
2019-03-23T11:57:52.155Z,54.17
2019-03-23T12:00:20.879Z,51.90
2019-03-23T12:02:49.495Z,55.07
2019-03-23T12:05:18.070Z,56.63
2019-03-23T12:07:47.071Z,57.17
2019-03-23T12:10:15.724Z,51.10
2019-03-23T12:12:44.410Z,54.97
2019-03-23T12:15:14.003Z,47.97
2019-03-23T12:17:43.173Z,53.80
2019-03-23T12:20:13.453Z,56.37
2019-03-23T12:22:42.076Z,53.50
2019-03-23T12:25:10.831Z,51.67
2019-03-23T12:27:39.479Z,52.10
2019-03-23T12:30:11.101Z,53.47
2019-03-23T12:32:39.726Z,52.33
2019-03-23T12:35:11.012Z,53.90
2019-03-23T12:37:39.737Z,50.87
2019-03-23T12:40:10.254Z,50.67
2019-03-23T12:42:39.140Z,47.40
2019-03-23T12:45:09.057Z,48.50
2019-03-23T12:47:38.046Z,43.67
2019-03-23T12:50:09.740Z,50.00
2019-03-23T12:52:38.632Z,45.97
2019-03-23T12:55:07.472Z,42.10
2019-03-23T12:57:36.112Z,41.43
2019-03-23T13:00:13.777Z,41.27
2019-03-23T13:02:42.368Z,47.07
2019-03-23T13:05:11.538Z,40.53
2019-03-23T13:07:40.141Z,43.50
2019-03-23T13:10:11.957Z,37.83
2019-03-23T13:12:40.662Z,42.27
2019-03-23T13:15:12.202Z,40.93
2019-03-23T13:17:40.843Z,43.80
2019-03-23T13:20:10.987Z,38.43
2019-03-23T13:22:39.577Z,39.60
2019-03-23T13:25:09.636Z,39.17
2019-03-23T13:27:38.512Z,37.20
2019-03-23T13:30:13.183Z,36.73
2019-03-23T13:32:42.191Z,37.40
2019-03-23T13:35:10.948Z,36.67
2019-03-23T13:37:39.547Z,38.07
2019-03-23T13:40:10.937Z,33.37
2019-03-23T13:42:39.520Z,34.87
2019-03-23T13:45:09.867Z,40.63
2019-03-23T13:47:39.394Z,34.90
2019-03-23T13:50:10.743Z,37.07
2019-03-23T13:52:39.399Z,35.80
2019-03-23T13:55:09.826Z,36.53
2019-03-23T13:57:38.435Z,33.87
2019-03-23T14:00:11.247Z,39.47
2019-03-23T14:02:39.871Z,36.07
2019-03-23T14:05:15.925Z,42.20
2019-03-23T14:07:38.876Z,38.93
2019-03-23T14:10:07.721Z,40.63
2019-03-23T14:12:36.344Z,37.10
2019-03-23T14:15:09.419Z,39.33
2019-03-23T14:17:37.922Z,42.03
2019-03-23T14:20:09.911Z,40.10
2019-03-23T14:22:39.360Z,45.03
2019-03-23T14:25:08.132Z,42.03
2019-03-23T14:27:37.111Z,42.17
2019-03-23T14:30:07.911Z,43.10
2019-03-23T14:32:36.567Z,43.47
2019-03-23T14:35:06.432Z,46.17
2019-03-23T14:37:35.040Z,43.50
2019-03-23T14:40:05.132Z,40.07
2019-03-23T14:42:35.308Z,43.77
2019-03-23T14:45:07.754Z,45.37
2019-03-23T14:47:36.352Z,45.93
2019-03-23T14:50:06.294Z,45.23
2019-03-23T14:52:35.360Z,37.53
2019-03-23T14:55:04.771Z,39.73
2019-03-23T14:57:33.373Z,35.70
2019-03-23T15:00:01.992Z,35.97
2019-03-23T15:02:30.583Z,41.30
2019-03-23T15:04:59.620Z,34.03
2019-03-23T15:07:28.269Z,33.40
2019-03-23T15:09:56.886Z,34.00
2019-03-23T15:12:25.487Z,31.33
2019-03-23T15:14:54.102Z,33.20
2019-03-23T15:17:22.706Z,33.40
2019-03-23T15:19:51.325Z,35.70
2019-03-23T15:22:20.294Z,33.97
2019-03-23T15:24:48.932Z,35.53
2019-03-23T15:27:17.601Z,34.90
2019-03-23T15:29:46.227Z,36.40
2019-03-23T15:32:14.810Z,33.80
2019-03-23T15:34:43.430Z,34.30
2019-03-23T15:37:12.252Z,33.63
2019-03-23T15:39:40.802Z,33.87
2019-03-23T15:42:09.938Z,34.90
2019-03-23T15:44:38.561Z,31.73
2019-03-23T15:47:07.235Z,32.03
2019-03-23T15:49:35.957Z,33.50
2019-03-23T15:52:04.992Z,30.93
2019-03-23T15:54:33.707Z,32.80
2019-03-23T15:57:02.762Z,33.93
2019-03-23T15:59:31.444Z,31.27
2019-03-23T16:02:00.111Z,27.37
2019-03-23T16:04:28.853Z,30.27
2019-03-23T16:06:57.466Z,33.20
2019-03-23T16:09:26.096Z,29.87
2019-03-23T16:11:54.700Z,29.40
2019-03-23T16:14:23.775Z,35.27
2019-03-23T16:16:52.418Z,25.97
2019-03-23T16:19:20.984Z,27.50
2019-03-23T16:21:49.962Z,25.20
2019-03-23T16:24:18.638Z,24.07
2019-03-23T16:26:47.217Z,24.97
2019-03-23T16:29:16.117Z,25.20
2019-03-23T16:31:44.812Z,23.70
2019-03-23T16:34:13.406Z,23.30
2019-03-23T16:36:41.992Z,25.87
2019-03-23T16:39:10.603Z,24.77
2019-03-23T16:41:39.196Z,22.70
2019-03-23T16:44:08.033Z,24.37
2019-03-23T16:46:36.646Z,23.70
2019-03-23T16:49:05.550Z,24.20
2019-03-23T16:51:34.682Z,24.87
2019-03-23T16:54:03.767Z,21.10
2019-03-23T16:56:32.502Z,25.77
2019-03-23T16:59:02.080Z,25.13
2019-03-23T17:01:30.951Z,23.77
2019-03-23T17:03:59.810Z,25.17
2019-03-23T17:06:28.464Z,23.97
2019-03-23T17:08:57.042Z,25.20
2019-03-23T17:11:25.649Z,23.87
2019-03-23T17:13:54.276Z,24.17
2019-03-23T17:16:22.972Z,24.27
2019-03-23T17:18:51.585Z,24.30
2019-03-23T17:21:20.219Z,25.43
2019-03-23T17:23:49.120Z,25.60
2019-03-23T17:26:17.763Z,26.13
2019-03-23T17:28:46.371Z,23.73
2019-03-23T17:31:15.394Z,23.60
2019-03-23T17:33:43.978Z,22.80
2019-03-23T17:36:12.623Z,23.60
2019-03-23T17:38:41.516Z,20.53
2019-03-23T17:41:10.521Z,25.07
2019-03-23T17:43:40.880Z,20.60
2019-03-23T17:46:09.702Z,23.60
2019-03-23T17:48:38.297Z,23.13
2019-03-23T17:51:07.180Z,25.20
2019-03-23T17:53:35.912Z,22.90
2019-03-23T17:56:06.395Z,23.40
2019-03-23T17:58:35.155Z,20.83
2019-03-23T18:01:03.926Z,19.80
2019-03-23T18:03:32.569Z,21.33
2019-03-23T18:06:02.065Z,22.40
2019-03-23T18:08:30.673Z,29.97
2019-03-23T18:11:02.375Z,21.97
2019-03-23T18:13:30.974Z,25.87
2019-03-23T18:15:59.577Z,26.07
2019-03-23T18:18:28.181Z,28.30
2019-03-23T18:20:56.808Z,30.43
2019-03-23T18:23:25.600Z,39.37
2019-03-23T18:25:54.498Z,30.23
2019-03-23T18:28:23.131Z,31.17
2019-03-23T18:30:51.731Z,30.63
2019-03-23T18:33:20.346Z,32.17
2019-03-23T18:35:49.326Z,30.27
2019-03-23T18:38:18.284Z,30.50
2019-03-23T18:40:47.127Z,39.20
2019-03-23T18:43:15.771Z,31.80
2019-03-23T18:45:44.346Z,36.63
2019-03-23T18:48:12.988Z,34.97
2019-03-23T18:50:42.759Z,29.40
2019-03-23T18:53:12.054Z,34.07
2019-03-23T18:55:40.643Z,33.50
2019-03-23T18:58:10.194Z,34.67
2019-03-23T19:00:43.263Z,36.30
2019-03-23T19:03:12.252Z,46.73
2019-03-23T19:05:40.990Z,36.17
2019-03-23T19:08:11.801Z,35.47
2019-03-23T19:10:40.262Z,36.63
2019-03-23T19:13:09.214Z,46.87
2019-03-23T19:15:38.177Z,56.37
2019-03-23T19:18:06.945Z,47.87
2019-03-23T19:20:35.597Z,45.00
2019-03-23T19:23:04.379Z,46.70
2019-03-23T19:25:32.945Z,52.87
2019-03-23T19:28:01.929Z,48.80
2019-03-23T19:30:30.495Z,53.53
2019-03-23T19:32:59.100Z,50.83
2019-03-23T19:35:27.693Z,55.90
2019-03-23T19:37:56.301Z,55.40
2019-03-23T19:40:24.861Z,58.87
2019-03-23T19:42:53.589Z,56.40
2019-03-23T19:45:22.348Z,60.10
2019-03-23T19:47:50.952Z,58.33
2019-03-23T19:50:19.862Z,55.20
2019-03-23T19:52:48.438Z,60.27
2019-03-23T19:55:17.040Z,63.23
2019-03-23T19:57:45.625Z,60.77
2019-03-23T20:00:14.796Z,57.17
2019-03-23T20:02:43.387Z,61.23
2019-03-23T20:05:12.616Z,60.13
2019-03-23T20:07:41.202Z,58.70
2019-03-23T20:10:10.449Z,55.03
2019-03-23T20:12:39.031Z,59.53
2019-03-23T20:15:08.883Z,56.87
2019-03-23T20:17:37.639Z,61.70
2019-03-23T20:20:09.651Z,52.97
2019-03-23T20:22:38.581Z,57.93
2019-03-23T20:25:07.841Z,59.13
2019-03-23T20:27:36.909Z,54.73
2019-03-23T20:30:08.283Z,48.23
2019-03-23T20:32:36.859Z,48.87
2019-03-23T20:35:08.136Z,58.53
2019-03-23T20:37:36.730Z,63.07
2019-03-23T20:40:09.045Z,63.50
2019-03-23T20:42:37.625Z,56.67
2019-03-23T20:45:08.278Z,54.73
2019-03-23T20:47:39.367Z,53.57
2019-03-23T20:50:09.006Z,57.40
2019-03-23T20:52:37.898Z,52.40
2019-03-23T20:55:08.511Z,52.53
2019-03-23T20:57:37.849Z,48.90
2019-03-23T21:00:08.148Z,51.47
2019-03-23T21:02:37.069Z,51.60
2019-03-23T21:05:06.245Z,53.37
2019-03-23T21:07:34.831Z,49.07
2019-03-23T21:10:04.042Z,53.80
2019-03-23T21:12:32.619Z,52.00
2019-03-23T21:15:01.530Z,51.87
2019-03-23T21:17:30.092Z,48.40
2019-03-23T21:19:58.698Z,45.63
2019-03-23T21:22:27.267Z,45.80
2019-03-23T21:24:56.165Z,43.30
2019-03-23T21:27:25.051Z,40.50
2019-03-23T21:29:53.979Z,55.53
2019-03-23T21:32:22.563Z,48.50
2019-03-23T21:34:51.327Z,47.87
2019-03-23T21:37:20.185Z,45.77
2019-03-23T21:39:49.135Z,54.13
2019-03-23T21:42:17.992Z,56.50
2019-03-23T21:44:46.633Z,50.90
2019-03-23T21:47:15.210Z,50.20
2019-03-23T21:49:43.791Z,50.77
2019-03-23T21:52:12.393Z,51.43
2019-03-23T21:54:41.011Z,49.00
2019-03-23T21:57:09.616Z,50.80
2019-03-23T21:59:38.485Z,63.60
2019-03-23T22:02:07.120Z,53.30
2019-03-23T22:04:35.668Z,50.67
2019-03-23T22:07:04.342Z,56.83
2019-03-23T22:09:32.924Z,60.40
2019-03-23T22:12:01.514Z,53.63
2019-03-23T22:14:30.088Z,62.83
2019-03-23T22:16:58.690Z,58.27
2019-03-23T22:19:27.275Z,79.80
2019-03-23T22:21:56.002Z,65.87
2019-03-23T22:24:24.641Z,61.30
2019-03-23T22:26:53.384Z,60.43
2019-03-23T22:29:21.936Z,63.17
2019-03-23T22:31:50.535Z,55.03
2019-03-23T22:34:19.258Z,60.43
2019-03-23T22:36:47.849Z,60.40
2019-03-23T22:39:16.433Z,54.80
2019-03-23T22:41:45.054Z,55.83
2019-03-23T22:44:13.613Z,59.67
2019-03-23T22:46:42.219Z,54.83
2019-03-23T22:49:10.805Z,56.00
2019-03-23T22:51:39.412Z,55.07
2019-03-23T22:54:09.400Z,59.23
2019-03-23T22:56:38.161Z,58.90
2019-03-23T22:59:06.753Z,69.57
2019-03-23T23:01:35.426Z,67.70
2019-03-23T23:04:04.268Z,63.73
2019-03-23T23:06:32.974Z,72.17
2019-03-23T23:09:01.887Z,72.77
2019-03-23T23:11:30.507Z,63.97
2019-03-23T23:13:59.238Z,59.07
2019-03-23T23:16:27.815Z,67.43
2019-03-23T23:18:56.507Z,63.40
2019-03-23T23:21:25.082Z,63.03
2019-03-23T23:23:53.680Z,61.80
2019-03-23T23:26:22.264Z,60.80
2019-03-23T23:28:50.854Z,59.40
2019-03-23T23:31:19.443Z,74.10
2019-03-23T23:33:48.051Z,63.87
2019-03-23T23:36:16.631Z,60.77
2019-03-23T23:38:45.256Z,60.47
2019-03-23T23:41:13.861Z,60.87
2019-03-23T23:43:42.530Z,55.70
2019-03-23T23:46:11.099Z,67.20
2019-03-23T23:48:43.120Z,64.90
2019-03-23T23:51:09.966Z,58.87
2019-03-23T23:53:38.589Z,66.90
2019-03-23T23:56:07.178Z,59.37
2019-03-23T23:58:35.853Z,65.20
